createdAt,value
2019-02-16T00:14:36.661Z,20.40
2019-02-16T00:21:59.212Z,20.13
2019-02-16T00:25:39.062Z,21.77
2019-02-16T00:28:24.283Z,20.50
2019-02-16T00:31:18.803Z,18.87
2019-02-16T01:19:22.958Z,20.53
2019-02-16T01:22:00.065Z,25.80
2019-02-16T01:25:37.038Z,25.63
2019-02-16T01:31:26.361Z,23.87
2019-02-16T01:34:12.839Z,22.70
2019-02-16T01:37:16.668Z,22.60
2019-02-16T01:40:18.259Z,21.30
2019-02-16T01:43:02.098Z,24.20
2019-02-16T01:46:53.068Z,25.97
2019-02-16T01:50:33.114Z,25.87
2019-02-16T01:57:32.091Z,25.73
2019-02-16T02:06:32.499Z,25.10
2019-02-16T02:16:51.702Z,22.00
2019-02-16T02:22:43.512Z,23.83
2019-02-16T02:29:36.111Z,23.47
2019-02-16T02:32:25.247Z,26.10
2019-02-16T02:35:08.006Z,25.27
2019-02-16T02:38:33.507Z,28.50
2019-02-16T02:41:15.587Z,24.63
2019-02-16T02:44:13.368Z,28.83
2019-02-16T02:47:01.817Z,31.47
2019-02-16T02:50:01.338Z,26.03
2019-02-16T02:52:46.710Z,27.07
2019-02-16T02:55:54.639Z,27.63
2019-02-16T02:59:12.116Z,30.87
2019-02-16T03:02:00.412Z,26.67
2019-02-16T03:08:16.286Z,26.60
2019-02-16T03:15:09.271Z,26.27
2019-02-16T03:18:07.299Z,33.13
2019-02-16T03:20:46.571Z,27.90
2019-02-16T03:23:28.878Z,27.47
2019-02-16T03:26:53.470Z,25.77
2019-02-16T03:29:47.126Z,26.73
2019-02-16T03:33:15.151Z,27.70
2019-02-16T03:36:48.225Z,29.37
2019-02-16T03:39:41.701Z,27.87
2019-02-16T03:42:18.547Z,30.47
2019-02-16T03:45:36.799Z,31.83
2019-02-16T03:48:27.499Z,27.40
2019-02-16T03:55:12.735Z,28.40
2019-02-16T03:58:01.104Z,29.93
2019-02-16T04:00:41.617Z,28.27
2019-02-16T04:07:14.310Z,28.20
2019-02-16T04:10:08.508Z,28.47
2019-02-16T04:12:56.125Z,29.73
2019-02-16T04:16:08.239Z,28.23
2019-02-16T04:22:00.711Z,30.13
2019-02-16T04:24:30.786Z,31.53
2019-02-16T04:27:03.771Z,31.07
2019-02-16T04:29:33.039Z,29.27
2019-02-16T04:32:02.535Z,33.57
2019-02-16T04:34:31.628Z,30.30
2019-02-16T04:37:02.882Z,27.67
2019-02-16T04:39:31.944Z,31.50
2019-02-16T04:42:00.905Z,29.63
2019-02-16T04:44:30.302Z,28.07
2019-02-16T04:46:59.499Z,30.20
2019-02-16T04:49:28.682Z,32.73
2019-02-16T04:51:58.052Z,31.17
2019-02-16T04:54:27.465Z,33.30
2019-02-16T04:56:56.738Z,35.03
2019-02-16T04:59:26.057Z,32.77
2019-02-16T05:01:55.329Z,32.23
2019-02-16T05:04:24.765Z,28.93
2019-02-16T05:06:54.207Z,34.97
2019-02-16T05:09:29.195Z,33.53
2019-02-16T05:11:58.593Z,32.77
2019-02-16T05:14:28.254Z,35.20
2019-02-16T05:16:57.321Z,32.73
2019-02-16T05:19:26.924Z,29.57
2019-02-16T05:21:56.199Z,33.77
2019-02-16T05:24:25.667Z,35.10
2019-02-16T05:26:54.787Z,32.63
2019-02-16T05:29:24.209Z,32.27
2019-02-16T05:31:54.325Z,32.07
2019-02-16T05:34:23.852Z,33.60
2019-02-16T05:36:53.252Z,31.37
2019-02-16T05:39:22.729Z,33.23
2019-02-16T05:41:55.268Z,32.40
2019-02-16T05:44:25.057Z,33.90
2019-02-16T05:46:54.555Z,35.77
2019-02-16T05:49:24.472Z,33.10
2019-02-16T05:51:53.796Z,36.07
2019-02-16T05:54:23.680Z,34.47
2019-02-16T05:56:53.063Z,30.70
2019-02-16T05:59:22.475Z,28.67
2019-02-16T06:01:54.287Z,30.47
2019-02-16T06:04:22.939Z,32.67
2019-02-16T06:06:52.199Z,30.47
2019-02-16T06:09:21.703Z,31.00
2019-02-16T06:11:53.856Z,36.70
2019-02-16T06:14:24.661Z,35.07
2019-02-16T06:16:53.939Z,36.67
2019-02-16T06:19:38.381Z,29.53
2019-02-16T06:22:05.480Z,33.87
2019-02-16T06:24:35.189Z,30.13
2019-02-16T06:27:04.829Z,32.40
2019-02-16T06:29:34.539Z,31.10
2019-02-16T06:32:03.969Z,37.53
2019-02-16T06:34:33.614Z,36.60
2019-02-16T06:37:20.242Z,36.20
2019-02-16T06:39:53.618Z,32.70
2019-02-16T06:42:23.734Z,32.23
2019-02-16T06:44:53.431Z,37.33
2019-02-16T06:47:23.816Z,34.60
2019-02-16T06:49:53.527Z,35.60
2019-02-16T06:52:25.434Z,33.23
2019-02-16T06:54:55.072Z,35.80
2019-02-16T06:57:33.551Z,34.93
2019-02-16T07:00:03.088Z,33.87
2019-02-16T07:02:33.422Z,33.07
2019-02-16T07:05:03.105Z,34.63
2019-02-16T07:07:38.446Z,34.30
2019-02-16T07:38:11.308Z,36.43
2019-02-16T07:40:40.655Z,37.80
2019-02-16T07:43:17.984Z,37.53
2019-02-16T07:46:03.013Z,32.83
2019-02-16T07:57:41.223Z,34.73
2019-02-16T08:00:40.322Z,33.60
2019-02-16T08:03:24.182Z,36.20
2019-02-16T08:06:08.150Z,34.50
2019-02-16T08:08:45.368Z,33.30
2019-02-16T08:11:40.646Z,33.27
2019-02-16T08:14:16.793Z,33.87
2019-02-16T08:17:14.035Z,32.40
2019-02-16T08:20:01.498Z,36.00
2019-02-16T08:22:49.101Z,32.90
2019-02-16T08:25:34.685Z,33.87
2019-02-16T08:28:20.995Z,32.70
2019-02-16T08:31:24.225Z,34.57
2019-02-16T08:33:59.146Z,39.60
2019-02-16T08:36:36.320Z,34.23
2019-02-16T08:39:11.093Z,33.50
2019-02-16T08:41:57.666Z,36.07
2019-02-16T08:44:39.291Z,31.87
2019-02-16T08:47:25.699Z,36.03
2019-02-16T08:50:04.437Z,33.80
2019-02-16T08:53:03.110Z,36.03
2019-02-16T08:55:41.847Z,36.27
2019-02-16T08:58:28.266Z,43.83
2019-02-16T09:01:22.876Z,33.77
2019-02-16T09:03:57.821Z,35.07
2019-02-16T09:06:51.642Z,34.67
2019-02-16T09:09:48.815Z,34.00
2019-02-16T09:12:37.100Z,34.07
2019-02-16T09:15:43.824Z,34.03
2019-02-16T09:18:24.648Z,37.80
2019-02-16T09:21:14.452Z,35.63
2019-02-16T09:23:59.368Z,32.23
2019-02-16T09:26:46.036Z,32.67
2019-02-16T09:29:29.339Z,32.83
2019-02-16T09:32:05.166Z,32.33
2019-02-16T09:35:10.928Z,37.57
2019-02-16T09:38:11.057Z,34.30
2019-02-16T09:41:08.721Z,35.77
2019-02-16T09:43:56.866Z,34.97
2019-02-16T09:46:43.958Z,35.07
2019-02-16T09:49:40.911Z,30.53
2019-02-16T09:52:35.555Z,33.33
2019-02-16T09:55:13.872Z,34.30
2019-02-16T09:58:01.712Z,34.60
2019-02-16T10:00:39.706Z,37.17
2019-02-16T10:03:27.951Z,33.40
2019-02-16T10:06:25.077Z,34.70
2019-02-16T10:09:06.919Z,37.03
2019-02-16T10:11:43.444Z,35.37
2019-02-16T10:14:26.702Z,34.27
2019-02-16T10:17:18.036Z,34.93
2019-02-16T10:20:02.734Z,37.87
2019-02-16T10:22:52.120Z,34.67
2019-02-16T10:25:40.359Z,37.57
2019-02-16T11:29:35.942Z,34.93
2019-02-16T11:32:26.593Z,36.37
2019-02-16T11:35:29.684Z,33.90
2019-02-16T11:38:03.711Z,34.63
2019-02-16T11:40:50.340Z,32.17
2019-02-16T11:43:25.899Z,34.60
2019-02-16T11:46:02.848Z,32.93
2019-02-16T11:48:46.717Z,35.20
2019-02-16T11:51:49.369Z,35.00
2019-02-16T11:54:45.625Z,35.63
2019-02-16T11:57:30.148Z,34.17
2019-02-16T12:00:21.974Z,32.03
2019-02-16T12:03:25.429Z,32.07
2019-02-16T12:06:15.238Z,35.57
2019-02-16T12:09:12.340Z,33.13
2019-02-16T12:12:07.706Z,32.90
2019-02-16T12:14:58.685Z,32.80
2019-02-16T12:17:45.803Z,31.03
2019-02-16T12:20:33.647Z,34.23
2019-02-16T12:23:24.901Z,34.00
2019-02-16T12:26:11.306Z,34.70
2019-02-16T12:29:05.345Z,41.13
2019-02-16T12:32:03.310Z,30.57
2019-02-16T12:35:29.085Z,40.00
2019-02-16T12:38:23.838Z,42.13
2019-02-16T12:41:05.489Z,36.83
2019-02-16T12:43:42.916Z,33.43
2019-02-16T12:46:36.455Z,36.33
2019-02-16T12:49:27.699Z,52.80
2019-02-16T12:52:22.025Z,32.03
2019-02-16T12:55:03.985Z,33.73
2019-02-16T12:57:40.077Z,37.63
2019-02-16T13:00:27.085Z,34.63
2019-02-16T13:03:05.397Z,37.60
2019-02-16T13:06:02.355Z,43.50
2019-02-16T13:08:42.757Z,30.70
2019-02-16T13:11:23.338Z,34.73
2019-02-16T13:14:13.902Z,36.53
2019-02-16T13:16:58.845Z,33.47
2019-02-16T13:19:49.779Z,35.40
2019-02-16T13:22:36.312Z,31.97
2019-02-16T13:25:23.888Z,33.30
2019-02-16T13:28:00.717Z,36.13
2019-02-16T13:30:48.188Z,32.77
2019-02-16T13:33:36.674Z,33.10
2019-02-16T13:36:43.896Z,31.07
2019-02-16T13:39:32.524Z,31.70
2019-02-16T13:42:23.042Z,28.47
2019-02-16T13:44:57.052Z,27.33
2019-02-16T13:47:28.775Z,30.43
2019-02-16T13:50:16.321Z,28.07
2019-02-16T13:52:54.941Z,25.43
2019-02-16T13:55:43.378Z,28.13
2019-02-16T13:58:30.574Z,26.43
2019-02-16T14:01:13.560Z,24.53
2019-02-16T14:04:10.219Z,26.43
2019-02-16T14:06:57.974Z,35.87
2019-02-16T14:09:48.706Z,29.20
2019-02-16T14:12:46.996Z,26.00
2019-02-16T14:15:34.575Z,26.20
2019-02-16T14:18:03.151Z,27.90
2019-02-16T14:20:34.604Z,27.83
2019-02-16T14:23:03.248Z,26.27
2019-02-16T14:25:45.942Z,27.10
2019-02-16T14:28:14.535Z,40.87
2019-02-16T14:30:43.081Z,28.37
2019-02-16T14:33:11.460Z,30.40
2019-02-16T14:35:40.275Z,37.37
2019-02-16T14:38:13.700Z,29.03
2019-02-16T14:40:42.336Z,34.97
2019-02-16T14:43:11.174Z,30.97
2019-02-16T14:45:40.779Z,33.20
2019-02-16T14:48:09.422Z,36.43
2019-02-16T14:50:40.127Z,35.47
2019-02-16T14:53:08.810Z,33.37
2019-02-16T14:55:39.560Z,35.93
2019-02-16T14:58:08.838Z,36.00
2019-02-16T15:00:37.374Z,36.80
2019-02-16T15:03:05.840Z,48.27
2019-02-16T15:05:34.440Z,38.73
2019-02-16T15:08:03.065Z,41.50
2019-02-16T15:10:31.668Z,39.07
2019-02-16T15:13:02.139Z,40.63
2019-02-16T15:15:30.825Z,40.33
2019-02-16T15:17:59.446Z,34.27
2019-02-16T15:20:27.877Z,37.30
2019-02-16T15:22:56.481Z,40.37
2019-02-16T15:25:25.051Z,36.37
2019-02-16T15:27:53.634Z,38.90
2019-02-16T15:30:22.230Z,34.23
2019-02-16T15:32:50.824Z,38.17
2019-02-16T15:35:22.824Z,36.30
2019-02-16T15:37:51.414Z,36.60
2019-02-16T15:40:20.007Z,40.30
2019-02-16T15:42:48.631Z,39.60
2019-02-16T15:45:17.119Z,33.87
2019-02-16T15:47:45.694Z,37.17
2019-02-16T15:50:14.311Z,36.37
2019-02-16T15:52:42.995Z,37.23
2019-02-16T15:55:11.582Z,39.90
2019-02-16T15:57:40.140Z,39.20
2019-02-16T16:00:11.748Z,41.90
2019-02-16T16:02:40.408Z,38.53
2019-02-16T16:05:09.197Z,40.57
2019-02-16T16:07:38.743Z,43.03
2019-02-16T16:10:26.662Z,41.10
2019-02-16T16:13:14.462Z,46.10
2019-02-16T16:16:15.113Z,40.33
2019-02-16T16:19:19.059Z,41.67
2019-02-16T16:22:06.463Z,42.70
2019-02-16T16:24:53.892Z,40.70
2019-02-16T16:27:48.609Z,41.47
2019-02-16T16:30:42.262Z,46.43
2019-02-16T16:33:32.942Z,43.57
2019-02-16T16:36:25.189Z,43.23
2019-02-16T16:39:25.340Z,38.67
2019-02-16T16:42:11.438Z,43.50
2019-02-16T16:45:11.409Z,43.00
2019-02-16T16:48:08.203Z,42.57
2019-02-16T16:50:47.949Z,44.87
2019-02-16T16:53:31.025Z,43.73
2019-02-16T16:56:05.214Z,40.40
2019-02-16T16:58:42.542Z,41.33
2019-02-16T17:01:31.738Z,45.93
2019-02-16T17:04:28.957Z,41.53
2019-02-16T17:07:22.448Z,45.50
2019-02-16T17:10:22.516Z,41.87
2019-02-16T17:13:13.260Z,42.70
2019-02-16T17:16:13.521Z,43.63
2019-02-16T17:19:25.470Z,43.17
2019-02-16T17:22:08.630Z,46.03
2019-02-16T17:24:52.497Z,43.47
2019-02-16T17:27:30.430Z,42.93
2019-02-16T18:14:08.257Z,44.07
2019-02-16T18:45:03.910Z,47.93
2019-02-16T18:48:04.539Z,52.50
2019-02-16T18:51:09.723Z,47.83
2019-02-16T19:16:49.477Z,52.10
2019-02-16T19:20:22.175Z,54.87
2019-02-16T19:26:28.710Z,51.07
2019-02-16T19:29:28.870Z,51.53
2019-02-16T19:36:13.213Z,51.60
2019-02-16T19:39:08.722Z,52.30
2019-02-16T19:42:00.034Z,48.77
2019-02-16T19:44:56.905Z,49.83
2019-02-16T19:47:41.852Z,50.90
2019-02-16T19:50:53.043Z,56.83
2019-02-16T19:53:55.636Z,52.17
2019-02-16T19:57:13.418Z,49.43
2019-02-16T20:03:57.541Z,49.23
2019-02-16T20:06:59.175Z,57.47
2019-02-16T20:10:15.825Z,52.70
2019-02-16T20:13:03.432Z,49.87
2019-02-16T20:15:52.854Z,49.70
2019-02-16T20:19:03.638Z,55.50
2019-02-16T20:21:58.319Z,48.80
2019-02-16T20:28:26.677Z,54.37
2019-02-16T20:35:15.310Z,52.60
2019-02-16T21:03:54.864Z,53.87
2019-02-16T21:06:53.380Z,49.93
